Gulgong Post Office, New South Wales

8:54 PM AEST on September 25, 2016 (GMT +1000)
Yarrawonga | | Change Station

Elev 1877 ft 32.34 °S, 149.68 °E | Updated 4 minutes ago

Clear
Clear
49.7 °F
Feels Like 50 °F
N
0.0
Wind Variable Wind from SSE
Gusts 1.0 mph

Today
High -- | Low -- °F
--% Chance of Precip.
Yesterday
High -- | Low -- °F
Precip. -- in
Pressure 29.95 in
Visibility 6.2 miles
Clouds
Windchill 50 °F
Dew Point 47 °F
Humidity 91%
Rainfall 0.60 in
Snow Depth Not available.
5:47 AM 6:00 PM
Waning Crescent, 29% visible
METAR YSDU 251030Z AUTO 24005KT 9999 // NCD 10/09 Q1014
Pressure 29.95 in
Visibility 6.2 miles
Clouds
Windchill 50 °F
Dew Point 47 °F
Humidity 91%
Rainfall 0.60 in
Snow Depth Not available.
5:47 AM 6:00 PM
Waning Crescent, 29% visible
METAR YSDU 251030Z AUTO 24005KT 9999 // NCD 10/09 Q1014

10-Day Weather Forecast

No radar image for this location.
×

Almanac

Astronomy

Sep. 25, 2016 Rise Set
Actual Time
Civil Twilight
Nautical Twilight
Astronomical Twilight
Moon
Length of Visible Light
Length of Day
Tomorrow will be .
, % of the Moon is Illuminated

Today's Extremes

Country Highs Country Lows

Community

WunderPhotos

Upload Photos

1,941,570 photos uploaded!

WunderBlog® & News

Nearby

Air Quality

  Air Quality AQ Index Pollutant
Not available.

Snow Depth

Station Depth Elevation

Earthquake Activity

City Distance Mag. Time & Date
Minimum magnitude displayed is 2.5.

Coastal Water Temperatures

Place Temperature

Stations

Nearby Weather Stations

Station Location Temp. Windchill Dew Point Humidity Wind Precip. Elev Updated Type